createdAt,value
2024-05-09T00:02:12.231Z,10.70
2024-05-09T00:04:39.422Z,10.71
2024-05-09T00:07:06.378Z,10.63
2024-05-09T00:09:33.251Z,10.54
2024-05-09T00:12:00.300Z,10.71
2024-05-09T00:14:30.586Z,10.83
2024-05-09T00:17:03.672Z,10.53
2024-05-09T00:19:31.368Z,10.70
2024-05-09T00:31:26.377Z,10.85
2024-05-09T00:33:54.053Z,10.54
2024-05-09T00:36:21.628Z,10.83
2024-05-09T00:38:49.181Z,10.81
2024-05-09T00:41:19.714Z,10.47
2024-05-09T00:43:47.528Z,10.50
2024-05-09T00:46:21.058Z,10.15
2024-05-09T00:48:49.171Z,10.02
2024-05-09T00:51:17.400Z,9.96
2024-05-09T00:53:46.895Z,9.87
2024-05-09T00:56:16.896Z,9.97
2024-05-09T00:58:43.903Z,9.95
2024-05-09T01:01:11.186Z,9.91
2024-05-09T01:03:38.571Z,9.96
2024-05-09T01:06:09.246Z,10.11
2024-05-09T01:08:36.487Z,10.04
2024-05-09T01:11:03.543Z,10.13
2024-05-09T01:13:32.991Z,10.11
2024-05-09T01:16:00.164Z,10.02
2024-05-09T01:18:27.211Z,10.33
2024-05-09T01:20:54.141Z,10.32
2024-05-09T01:23:21.282Z,10.48
2024-05-09T01:25:51.366Z,10.26
2024-05-09T01:28:18.435Z,10.15
2024-05-09T01:30:45.523Z,10.20
2024-05-09T01:33:13.328Z,10.01
2024-05-09T01:35:42.072Z,10.03
2024-05-09T01:38:10.737Z,10.18
2024-05-09T01:40:40.053Z,10.15
2024-05-09T01:43:07.632Z,10.21
2024-05-09T01:45:34.774Z,10.02
2024-05-09T01:48:02.537Z,9.84
2024-05-09T01:50:38.008Z,10.14
2024-05-09T01:53:08.956Z,10.18
2024-05-09T01:55:37.702Z,10.27
2024-05-09T01:58:07.773Z,10.28
2024-05-09T02:00:41.153Z,10.08
2024-05-09T02:03:11.029Z,10.08
2024-05-09T02:05:40.140Z,10.31
2024-05-09T02:08:07.097Z,10.15
2024-05-09T02:10:34.379Z,10.01
2024-05-09T02:13:01.506Z,10.10
2024-05-09T02:15:28.327Z,10.11
2024-05-09T02:17:55.610Z,10.09
2024-05-09T02:20:30.438Z,10.20
2024-05-09T02:23:03.077Z,10.16
2024-05-09T02:25:30.111Z,10.31
2024-05-09T02:27:57.143Z,10.34
2024-05-09T02:30:36.237Z,10.19
2024-05-09T02:33:08.101Z,10.12
2024-05-09T02:35:38.086Z,9.85
2024-05-09T02:38:07.785Z,9.82
2024-05-09T02:40:39.462Z,9.89
2024-05-09T02:43:11.407Z,9.85
2024-05-09T02:45:39.425Z,9.62
2024-05-09T02:48:07.191Z,9.65
2024-05-09T02:50:38.970Z,9.60
2024-05-09T02:53:07.221Z,9.51
2024-05-09T02:55:34.354Z,9.64
2024-05-09T02:58:01.364Z,9.78
2024-05-09T03:00:36.875Z,9.89
2024-05-09T03:03:09.051Z,9.87
2024-05-09T03:05:37.644Z,10.04
2024-05-09T03:08:04.879Z,9.64
2024-05-09T03:10:36.177Z,9.56
2024-05-09T03:13:05.261Z,9.50
2024-05-09T03:15:32.155Z,9.43
2024-05-09T03:17:59.760Z,9.35
2024-05-09T03:20:33.022Z,9.70
2024-05-09T03:23:02.203Z,9.53
2024-05-09T03:25:29.196Z,9.43
2024-05-09T03:27:56.212Z,9.64
2024-05-09T03:30:30.924Z,9.59
2024-05-09T03:33:06.443Z,9.46
2024-05-09T03:35:33.610Z,9.70
2024-05-09T03:38:00.691Z,9.99
2024-05-09T03:40:30.860Z,9.78
2024-05-09T03:42:58.089Z,9.66
2024-05-09T03:45:25.246Z,9.63
2024-05-09T03:47:52.860Z,9.81
2024-05-09T03:50:26.304Z,9.81
2024-05-09T03:53:00.518Z,9.65
2024-05-09T03:55:27.648Z,10.03
2024-05-09T03:57:54.751Z,10.06
2024-05-09T04:00:30.011Z,10.06
2024-05-09T04:03:06.245Z,10.15
2024-05-09T04:05:35.825Z,10.34
2024-05-09T04:08:03.560Z,10.25
2024-05-09T04:10:33.985Z,10.34
2024-05-09T04:13:03.287Z,10.30
2024-05-09T04:15:34.577Z,10.17
2024-05-09T04:18:02.737Z,10.12
2024-05-09T04:20:37.616Z,10.18
2024-05-09T04:23:08.337Z,10.01
2024-05-09T04:25:36.177Z,10.07
2024-05-09T04:28:03.192Z,10.01
2024-05-09T04:30:36.747Z,10.14
2024-05-09T04:33:08.411Z,10.00
2024-05-09T04:35:37.410Z,10.17
2024-05-09T04:38:04.438Z,10.34
2024-05-09T04:40:35.076Z,10.49
2024-05-09T04:43:04.006Z,10.71
2024-05-09T04:45:31.443Z,10.64
2024-05-09T04:47:58.919Z,10.57
2024-05-09T04:50:35.230Z,10.58
2024-05-09T04:53:05.536Z,10.47
2024-05-09T04:55:33.017Z,10.49
2024-05-09T04:57:59.937Z,10.31
2024-05-09T05:00:34.740Z,10.30
2024-05-09T05:03:04.494Z,10.11
2024-05-09T05:05:34.715Z,10.35
2024-05-09T05:08:01.705Z,10.52
2024-05-09T05:10:34.044Z,10.61
2024-05-09T05:13:03.557Z,10.72
2024-05-09T05:15:30.369Z,10.99
2024-05-09T05:17:59.213Z,10.94
2024-05-09T05:20:32.874Z,11.00
2024-05-09T05:23:03.358Z,11.21
2024-05-09T05:25:30.802Z,11.06
2024-05-09T05:27:58.487Z,10.95
2024-05-09T05:30:32.507Z,10.77
2024-05-09T05:33:01.926Z,10.77
2024-05-09T05:35:30.125Z,10.70
2024-05-09T05:37:58.343Z,11.02
2024-05-09T05:40:33.235Z,10.76
2024-05-09T05:43:04.511Z,11.33
2024-05-09T05:45:37.275Z,11.08
2024-05-09T05:48:05.496Z,10.66
2024-05-09T05:50:36.679Z,10.90
2024-05-09T05:53:05.760Z,11.89
2024-05-09T05:55:33.232Z,13.30
2024-05-09T05:58:00.999Z,13.03
2024-05-09T06:00:37.815Z,13.15
2024-05-09T06:03:06.928Z,14.85
2024-05-09T06:05:34.457Z,15.54
2024-05-09T06:08:04.222Z,15.51
2024-05-09T06:10:37.979Z,15.98
2024-05-09T06:13:07.747Z,14.37
2024-05-09T06:15:34.831Z,14.69
2024-05-09T06:18:03.739Z,15.26
2024-05-09T06:20:36.162Z,17.18
2024-05-09T06:23:10.433Z,16.63
2024-05-09T06:29:02.842Z,18.14
2024-05-09T06:31:33.787Z,17.70
2024-05-09T06:34:08.225Z,18.28
2024-05-09T06:36:35.965Z,16.93
2024-05-09T06:39:12.444Z,16.51
2024-05-09T06:41:48.934Z,15.94
2024-05-09T06:44:20.647Z,15.13
2024-05-09T06:46:54.066Z,14.24
2024-05-09T06:51:57.369Z,13.62
2024-05-09T06:56:59.929Z,16.43
2024-05-09T06:59:36.710Z,15.69
2024-05-09T07:02:13.995Z,16.84
2024-05-09T07:04:51.475Z,16.49
2024-05-09T07:07:27.637Z,17.18
2024-05-09T07:09:56.163Z,17.46
2024-05-09T07:12:23.476Z,18.67
2024-05-09T07:14:50.539Z,19.01
2024-05-09T07:17:17.422Z,20.71
2024-05-09T07:19:50.302Z,21.65
2024-05-09T07:22:18.712Z,21.63
2024-05-09T07:27:32.912Z,23.66
2024-05-09T07:30:00.577Z,25.17
2024-05-09T07:32:27.299Z,24.70
2024-05-09T07:34:54.009Z,24.69
2024-05-09T07:37:20.759Z,22.76
2024-05-09T07:39:47.449Z,23.46
2024-05-09T07:42:14.023Z,23.40
2024-05-09T07:44:41.022Z,23.34
2024-05-09T07:48:14.601Z,24.85
2024-05-09T07:55:00.688Z,24.32
2024-05-09T07:57:27.633Z,21.70
2024-05-09T07:59:57.768Z,23.00
2024-05-09T08:02:28.546Z,23.84
2024-05-09T08:04:55.789Z,25.12
2024-05-09T08:07:22.922Z,27.08
2024-05-09T08:09:50.052Z,25.04
2024-05-09T08:12:17.023Z,25.91
2024-05-09T08:14:43.995Z,25.17
2024-05-09T08:17:11.002Z,24.20
2024-05-09T08:19:38.146Z,25.42
2024-05-09T08:22:05.224Z,24.49
2024-05-09T08:24:32.396Z,23.38
2024-05-09T08:26:59.389Z,25.02
2024-05-09T08:29:26.347Z,26.72
2024-05-09T08:31:53.300Z,24.87
2024-05-09T08:34:20.412Z,26.81
2024-05-09T08:36:47.475Z,25.56
2024-05-09T08:39:14.502Z,27.11
2024-05-09T08:41:41.422Z,26.62
2024-05-09T08:44:08.353Z,25.54
2024-05-09T08:46:35.348Z,27.97
2024-05-09T08:49:02.528Z,26.59
2024-05-09T08:51:29.674Z,26.88
2024-05-09T08:53:56.820Z,28.55
2024-05-09T08:56:23.761Z,26.31
2024-05-09T08:58:50.700Z,27.72
2024-05-09T09:01:17.777Z,26.99
2024-05-09T09:03:44.970Z,28.47
2024-05-09T09:06:12.247Z,25.95
2024-05-09T09:08:39.394Z,24.52
2024-05-09T09:11:06.447Z,23.81
2024-05-09T09:13:33.108Z,23.95
2024-05-09T09:16:00.023Z,26.74
2024-05-09T09:18:27.119Z,27.25
2024-05-09T09:20:54.022Z,25.64
2024-05-09T09:23:20.628Z,27.49
2024-05-09T09:25:47.305Z,25.97
2024-05-09T09:28:14.036Z,24.91
2024-05-09T09:30:40.758Z,26.15
2024-05-09T09:33:07.490Z,27.16
2024-05-09T09:35:34.206Z,27.10
2024-05-09T09:38:00.933Z,26.86
2024-05-09T09:40:32.131Z,26.52
2024-05-09T09:43:00.569Z,25.95
2024-05-09T09:45:27.454Z,23.13
2024-05-09T09:47:54.141Z,22.80
2024-05-09T09:50:27.569Z,23.35
2024-05-09T09:53:00.351Z,24.35
2024-05-09T09:55:27.221Z,23.14
2024-05-09T09:57:54.104Z,22.70
2024-05-09T10:05:33.057Z,23.03
2024-05-09T10:08:02.281Z,24.08
2024-05-09T10:10:32.464Z,23.74
2024-05-09T10:13:01.061Z,23.51
2024-05-09T10:15:31.260Z,24.93
2024-05-09T10:18:01.522Z,25.27
2024-05-09T10:20:32.539Z,24.95
2024-05-09T10:22:59.970Z,24.82
2024-05-09T10:25:27.272Z,24.12
2024-05-09T10:27:54.429Z,22.99
2024-05-09T10:30:29.376Z,23.74
2024-05-09T10:33:01.659Z,22.80
2024-05-09T10:35:28.917Z,22.59
2024-05-09T10:37:55.989Z,22.79
2024-05-09T10:40:28.774Z,23.61
2024-05-09T10:42:59.149Z,22.98
2024-05-09T10:45:27.451Z,21.50
2024-05-09T10:48:09.323Z,20.10
2024-05-09T10:50:39.854Z,20.92
2024-05-09T10:53:07.602Z,21.07
2024-05-09T10:55:38.513Z,20.84
2024-05-09T10:58:07.470Z,20.26
2024-05-09T11:00:39.338Z,22.04
2024-05-09T11:03:10.037Z,20.82
2024-05-09T11:05:38.165Z,21.08
2024-05-09T11:08:08.724Z,21.88
2024-05-09T11:10:38.222Z,21.46
2024-05-09T11:13:08.466Z,21.05
2024-05-09T11:15:38.623Z,19.98
2024-05-09T11:18:07.562Z,19.31
2024-05-09T11:20:35.565Z,20.05
2024-05-09T11:23:02.935Z,19.83
2024-05-09T11:25:31.197Z,19.06
2024-05-09T11:27:59.420Z,19.48
2024-05-09T11:30:31.816Z,19.19
2024-05-09T11:33:02.962Z,19.13
2024-05-09T11:35:30.339Z,19.20
2024-05-09T11:37:59.424Z,19.75
2024-05-09T11:40:34.172Z,20.05
2024-05-09T11:43:04.926Z,19.54
2024-05-09T11:45:32.158Z,18.95
2024-05-09T11:47:59.933Z,19.24
2024-05-09T11:50:34.944Z,18.31
2024-05-09T11:53:03.368Z,18.08
2024-05-09T11:55:33.182Z,18.14
2024-05-09T11:58:00.290Z,17.86
2024-05-09T12:00:34.157Z,17.84
2024-05-09T12:03:04.509Z,17.58
2024-05-09T12:05:38.959Z,18.60
2024-05-09T12:08:10.367Z,19.19
2024-05-09T12:10:40.133Z,18.85
2024-05-09T12:13:10.169Z,18.64
2024-05-09T12:15:38.707Z,17.94
2024-05-09T12:18:13.599Z,18.32
2024-05-09T12:20:41.971Z,18.03
2024-05-09T12:23:11.612Z,18.08
2024-05-09T12:25:39.991Z,18.93
2024-05-09T12:28:08.326Z,19.05
2024-05-09T12:30:48.665Z,18.17
2024-05-09T12:33:17.553Z,17.70
2024-05-09T12:35:47.340Z,17.69
2024-05-09T12:38:17.260Z,17.72
2024-05-09T12:40:57.358Z,18.41
2024-05-09T12:43:26.201Z,18.68
2024-05-09T12:45:54.061Z,18.16
2024-05-09T12:48:21.249Z,18.13
2024-05-09T12:50:50.194Z,18.53
2024-05-09T12:53:17.405Z,18.45
2024-05-09T12:55:53.768Z,18.58
2024-05-09T12:58:24.718Z,18.93
2024-05-09T13:00:56.695Z,18.47
2024-05-09T13:03:42.848Z,18.72
2024-05-09T13:06:09.995Z,19.16
2024-05-09T13:08:37.047Z,19.48
2024-05-09T13:11:17.087Z,19.36
2024-05-09T13:13:44.819Z,19.41
2024-05-09T13:16:12.223Z,19.45
2024-05-09T13:18:39.971Z,19.53
2024-05-09T13:21:07.212Z,18.79
2024-05-09T13:23:35.328Z,18.30
2024-05-09T13:26:02.650Z,18.12
2024-05-09T13:28:29.828Z,18.28
2024-05-09T13:30:56.930Z,18.29
2024-05-09T13:33:24.503Z,18.43
2024-05-09T13:35:51.835Z,18.24
2024-05-09T13:38:23.438Z,18.62
2024-05-09T13:40:51.145Z,18.99
2024-05-09T13:43:20.837Z,18.83
2024-05-09T13:45:59.765Z,18.22
2024-05-09T13:48:28.589Z,18.44
2024-05-09T13:50:56.678Z,19.20
2024-05-09T13:53:25.324Z,18.96
2024-05-09T13:56:03.561Z,18.90
2024-05-09T13:58:40.637Z,18.41
2024-05-09T14:01:14.916Z,18.41
2024-05-09T14:03:43.621Z,19.04
2024-05-09T14:06:13.152Z,19.15
2024-05-09T14:08:40.239Z,18.44
2024-05-09T14:11:28.397Z,18.10
2024-05-09T14:13:56.065Z,18.60
2024-05-09T14:16:24.982Z,18.51
2024-05-09T14:18:55.438Z,18.52
2024-05-09T14:21:22.330Z,18.44
2024-05-09T14:23:50.292Z,18.19
2024-05-09T14:26:17.462Z,18.03
2024-05-09T14:28:44.575Z,18.01
2024-05-09T14:31:11.716Z,18.27
2024-05-09T14:33:39.621Z,18.06
2024-05-09T14:36:06.671Z,18.20
2024-05-09T14:38:33.572Z,17.92
2024-05-09T14:41:03.465Z,17.70
2024-05-09T14:43:30.440Z,17.91
2024-05-09T14:45:57.550Z,18.38
2024-05-09T14:48:24.695Z,18.48
2024-05-09T14:50:51.849Z,18.64
2024-05-09T14:53:20.724Z,18.52
2024-05-09T14:55:47.871Z,18.95
2024-05-09T14:58:15.228Z,18.61
2024-05-09T15:00:46.453Z,18.81
2024-05-09T15:03:17.582Z,18.56
2024-05-09T15:05:50.171Z,17.84
2024-05-09T15:08:24.098Z,17.78
2024-05-09T15:11:05.414Z,17.95
2024-05-09T15:13:49.416Z,17.96
2024-05-09T15:16:17.130Z,17.97
2024-05-09T15:18:45.345Z,18.24
2024-05-09T15:21:16.452Z,18.08
2024-05-09T15:23:44.040Z,18.88
2024-05-09T15:26:26.896Z,18.85
2024-05-09T15:28:54.757Z,18.58
2024-05-09T15:31:22.958Z,18.64
2024-05-09T15:33:51.452Z,18.95
2024-05-09T15:36:22.053Z,18.23
2024-05-09T15:38:58.993Z,18.58
2024-05-09T15:41:27.465Z,18.74
2024-05-09T15:43:58.394Z,18.69
2024-05-09T15:46:28.628Z,18.03
2024-05-09T15:49:13.850Z,17.69
2024-05-09T15:51:42.502Z,17.57
2024-05-09T15:54:12.966Z,17.71
2024-05-09T15:56:40.965Z,17.69
2024-05-09T15:59:08.759Z,17.50
2024-05-09T16:01:43.041Z,17.70
2024-05-09T16:04:11.135Z,17.84
2024-05-09T16:06:39.464Z,18.02
2024-05-09T16:09:08.112Z,17.71
2024-05-09T16:11:37.492Z,17.92
2024-05-09T16:14:07.562Z,18.14
2024-05-09T16:16:34.870Z,18.12
2024-05-09T16:19:04.071Z,18.31
2024-05-09T16:21:47.094Z,18.45
2024-05-09T16:53:47.125Z,18.50
2024-05-09T16:56:18.155Z,18.11
2024-05-09T16:58:46.046Z,18.42
2024-05-09T17:01:17.163Z,18.82
2024-05-09T17:03:44.573Z,18.70
2024-05-09T17:06:12.088Z,18.72
2024-05-09T17:08:47.408Z,18.04
2024-05-09T17:11:14.535Z,18.34
2024-05-09T17:41:48.995Z,17.08
2024-05-09T19:24:50.199Z,15.62
2024-05-09T19:27:17.574Z,15.58
2024-05-09T19:29:44.461Z,15.04
2024-05-09T19:32:11.572Z,15.24
2024-05-09T19:34:38.533Z,15.44
2024-05-09T19:37:05.566Z,15.21
2024-05-09T19:39:32.252Z,15.17
2024-05-09T19:41:58.794Z,15.16
2024-05-09T19:44:25.401Z,15.02
2024-05-09T19:46:51.948Z,14.75
2024-05-09T19:49:18.583Z,15.00
2024-05-09T19:51:45.276Z,15.00
2024-05-09T19:54:11.837Z,15.05
2024-05-09T19:56:38.397Z,14.99
2024-05-09T19:59:04.994Z,14.98
2024-05-09T20:01:31.585Z,15.08
2024-05-09T20:03:58.391Z,14.92
2024-05-09T20:06:25.024Z,15.32
2024-05-09T20:08:51.619Z,15.12
2024-05-09T20:11:18.233Z,14.99
2024-05-09T20:13:44.809Z,14.77
2024-05-09T20:16:11.393Z,14.65
2024-05-09T20:18:38.118Z,15.03
2024-05-09T20:21:05.090Z,14.95
2024-05-09T20:23:31.829Z,15.09
2024-05-09T20:25:58.449Z,15.04
2024-05-09T20:28:25.009Z,14.71
2024-05-09T20:30:51.586Z,14.76
2024-05-09T20:33:18.243Z,14.58
2024-05-09T20:35:44.820Z,14.74
2024-05-09T20:38:11.781Z,14.75
2024-05-09T20:40:39.805Z,14.63
2024-05-09T20:43:07.523Z,14.78
2024-05-09T20:45:35.067Z,14.72
2024-05-09T20:48:02.576Z,14.75
2024-05-09T20:50:37.237Z,15.07
2024-05-09T20:53:07.621Z,14.72
2024-05-09T20:55:34.582Z,14.65
2024-05-09T20:58:01.627Z,14.51
2024-05-09T21:00:35.473Z,14.35
2024-05-09T21:03:07.579Z,14.40
2024-05-09T21:05:35.484Z,14.40
2024-05-09T21:08:02.978Z,14.53
2024-05-09T21:10:33.197Z,14.52
2024-05-09T21:13:01.901Z,14.39
2024-05-09T21:15:41.086Z,14.38
2024-05-09T21:18:08.620Z,14.32
2024-05-09T21:20:36.542Z,14.00
2024-05-09T21:23:04.155Z,14.06
2024-05-09T21:25:31.292Z,14.09
2024-05-09T21:27:58.715Z,14.21
2024-05-09T21:30:32.764Z,14.33
2024-05-09T21:33:08.480Z,14.35
2024-05-09T21:35:36.122Z,14.31
2024-05-09T21:38:03.506Z,14.19
2024-05-09T21:40:34.536Z,14.26
2024-05-09T21:43:03.747Z,14.21
2024-05-09T21:45:31.004Z,14.04
2024-05-09T21:47:58.173Z,14.29
2024-05-09T21:50:32.381Z,14.10
2024-05-09T21:53:06.763Z,14.15
2024-05-09T21:55:34.206Z,14.15
2024-05-09T21:58:01.432Z,14.31
2024-05-09T22:00:35.283Z,14.21
2024-05-09T22:03:05.198Z,14.38
2024-05-09T22:05:32.600Z,14.23
2024-05-09T22:08:00.019Z,14.26
2024-05-09T22:10:33.266Z,14.03
2024-05-09T22:13:02.728Z,14.17
2024-05-09T22:15:29.893Z,14.21
2024-05-09T22:17:57.592Z,14.27
2024-05-09T22:20:36.324Z,14.36
2024-05-09T22:23:06.022Z,14.22
2024-05-09T22:25:33.568Z,14.32
2024-05-09T22:28:01.785Z,14.40
2024-05-09T22:30:36.956Z,14.53
2024-05-09T22:33:06.997Z,14.82
2024-05-09T22:35:34.437Z,14.81
2024-05-09T22:38:01.127Z,14.99
2024-05-09T22:40:38.533Z,14.97
2024-05-09T22:43:13.424Z,15.02
2024-05-09T22:45:40.315Z,14.98
2024-05-09T22:48:07.335Z,14.95
2024-05-09T22:50:34.186Z,14.87
2024-05-09T22:53:00.992Z,14.82
2024-05-09T22:55:27.739Z,14.77
2024-05-09T22:57:54.433Z,14.76
2024-05-09T23:00:29.290Z,14.57
2024-05-09T23:02:58.691Z,14.74
2024-05-09T23:05:25.691Z,14.73
2024-05-09T23:07:52.407Z,14.67
2024-05-09T23:10:27.323Z,14.58
2024-05-09T23:12:58.857Z,14.60
2024-05-09T23:15:25.591Z,14.57
2024-05-09T23:17:52.347Z,14.57
2024-05-09T23:20:29.929Z,14.47
2024-05-09T23:23:03.701Z,14.47
2024-05-09T23:25:30.769Z,14.57
2024-05-09T23:27:57.536Z,14.35
2024-05-09T23:30:33.597Z,14.22
2024-05-09T23:33:04.726Z,14.34
2024-05-09T23:35:31.480Z,14.28
2024-05-09T23:37:58.596Z,13.93
2024-05-09T23:40:36.768Z,13.95
2024-05-09T23:43:07.222Z,13.98
2024-05-09T23:45:34.498Z,13.89
2024-05-09T23:48:01.727Z,13.94
2024-05-09T23:50:35.778Z,13.83
2024-05-09T23:53:05.127Z,13.92
2024-05-09T23:55:32.444Z,13.94
2024-05-09T23:57:59.499Z,13.85
